sensor_id;sensor_type;location;lat;lon;timestamp;pressure;altitude;pressure_sealevel;temperature;humidity
51299;BME280;37382;45.192;9.790;2023-03-26T00:01:32;100706.19;;;12.97;86.13
51299;BME280;37382;45.192;9.790;2023-03-26T00:04:03;100718.25;;;12.62;97.80
51299;BME280;37382;45.192;9.790;2023-03-26T00:06:35;100717.00;;;12.58;100.00
51299;BME280;37382;45.192;9.790;2023-03-26T00:09:07;100723.28;;;12.39;100.00
51299;BME280;37382;45.192;9.790;2023-03-26T00:11:36;100732.22;;;11.86;100.00
51299;BME280;37382;45.192;9.790;2023-03-26T00:14:04;100734.59;;;11.34;100.00
51299;BME280;37382;45.192;9.790;2023-03-26T00:16:31;100732.19;;;11.66;100.00
51299;BME280;37382;45.192;9.790;2023-03-26T00:19:00;100731.91;;;11.47;100.00
51299;BME280;37382;45.192;9.790;2023-03-26T00:21:29;100728.53;;;12.27;100.00
51299;BME280;37382;45.192;9.790;2023-03-26T00:24:03;100736.47;;;11.95;100.00
51299;BME280;37382;45.192;9.790;2023-03-26T00:26:35;100728.75;;;12.19;100.00
51299;BME280;37382;45.192;9.790;2023-03-26T00:29:04;100737.56;;;12.34;100.00
51299;BME280;37382;45.192;9.790;2023-03-26T00:31:33;100764.22;;;12.32;100.00
51299;BME280;37382;45.192;9.790;2023-03-26T00:34:02;100760.38;;;12.00;100.00
51299;BME280;37382;45.192;9.790;2023-03-26T00:36:32;100764.00;;;12.20;100.00
51299;BME280;37382;45.192;9.790;2023-03-26T00:39:03;100770.28;;;12.21;100.00
51299;BME280;37382;45.192;9.790;2023-03-26T00:41:32;100758.13;;;12.30;100.00
51299;BME280;37382;45.192;9.790;2023-03-26T00:44:03;100755.63;;;12.35;100.00
51299;BME280;37382;45.192;9.790;2023-03-26T00:46:30;100765.03;;;12.13;100.00
51299;BME280;37382;45.192;9.790;2023-03-26T00:48:59;100771.53;;;12.32;100.00
51299;BME280;37382;45.192;9.790;2023-03-26T00:51:27;100772.59;;;12.24;100.00
51299;BME280;37382;45.192;9.790;2023-03-26T00:53:55;100759.81;;;12.44;100.00
51299;BME280;37382;45.192;9.790;2023-03-26T00:56:24;100746.38;;;12.56;99.74
51299;BME280;37382;45.192;9.790;2023-03-26T00:58:52;100751.81;;;12.76;100.00
51299;BME280;37382;45.192;9.790;2023-03-26T01:01:24;100750.75;;;12.84;99.90
51299;BME280;37382;45.192;9.790;2023-03-26T01:04:16;100748.91;;;12.51;100.00
51299;BME280;37382;45.192;9.790;2023-03-26T01:06:45;100739.44;;;12.40;100.00
51299;BME280;37382;45.192;9.790;2023-03-26T01:09:16;100744.47;;;12.30;100.00
51299;BME280;37382;45.192;9.790;2023-03-26T01:11:46;100738.59;;;12.13;100.00
51299;BME280;37382;45.192;9.790;2023-03-26T01:14:18;100733.28;;;11.85;100.00
51299;BME280;37382;45.192;9.790;2023-03-26T01:17:00;100729.50;;;11.86;100.00
51299;BME280;37382;45.192;9.790;2023-03-26T01:22:19;100736.16;;;11.63;100.00
51299;BME280;37382;45.192;9.790;2023-03-26T01:24:48;100727.47;;;11.95;100.00
51299;BME280;37382;45.192;9.790;2023-03-26T01:30:39;100702.88;;;11.81;100.00
51299;BME280;37382;45.192;9.790;2023-03-26T01:33:20;100704.13;;;11.79;100.00
51299;BME280;37382;45.192;9.790;2023-03-26T01:38:40;100691.72;;;11.56;100.00
51299;BME280;37382;45.192;9.790;2023-03-26T01:41:20;100693.63;;;11.69;100.00
51299;BME280;37382;45.192;9.790;2023-03-26T01:46:44;100706.88;;;11.79;100.00
51299;BME280;37382;45.192;9.790;2023-03-26T01:49:13;100711.63;;;11.56;100.00
51299;BME280;37382;45.192;9.790;2023-03-26T01:51:41;100706.78;;;11.52;100.00
51299;BME280;37382;45.192;9.790;2023-03-26T01:54:12;100711.00;;;11.61;100.00
51299;BME280;37382;45.192;9.790;2023-03-26T02:00:09;100710.63;;;11.78;100.00
51299;BME280;37382;45.192;9.790;2023-03-26T02:02:55;100707.28;;;11.82;100.00
51299;BME280;37382;45.192;9.790;2023-03-26T02:05:36;100702.63;;;11.63;100.00
51299;BME280;37382;45.192;9.790;2023-03-26T02:10:56;100707.44;;;11.61;100.00
51299;BME280;37382;45.192;9.790;2023-03-26T02:13:25;100704.75;;;11.74;100.00
51299;BME280;37382;45.192;9.790;2023-03-26T02:18:24;100711.00;;;11.61;100.00
51299;BME280;37382;45.192;9.790;2023-03-26T02:20:52;100715.38;;;11.55;100.00
51299;BME280;37382;45.192;9.790;2023-03-26T02:23:21;100716.31;;;11.21;100.00
51299;BME280;37382;45.192;9.790;2023-03-26T02:25:48;100712.56;;;11.29;100.00
51299;BME280;37382;45.192;9.790;2023-03-26T02:28:16;100710.06;;;11.27;100.00
51299;BME280;37382;45.192;9.790;2023-03-26T02:30:45;100704.75;;;11.19;100.00
51299;BME280;37382;45.192;9.790;2023-03-26T02:33:15;100712.72;;;11.20;100.00
51299;BME280;37382;45.192;9.790;2023-03-26T02:35:43;100713.38;;;11.23;100.00
51299;BME280;37382;45.192;9.790;2023-03-26T02:38:12;100724.00;;;11.11;100.00
51299;BME280;37382;45.192;9.790;2023-03-26T02:40:40;100725.22;;;11.01;100.00
51299;BME280;37382;45.192;9.790;2023-03-26T02:43:08;100717.13;;;11.15;100.00
51299;BME280;37382;45.192;9.790;2023-03-26T02:45:36;100712.84;;;11.41;100.00
51299;BME280;37382;45.192;9.790;2023-03-26T02:48:04;100716.81;;;11.45;100.00
51299;BME280;37382;45.192;9.790;2023-03-26T02:50:37;100723.88;;;11.32;100.00
51299;BME280;37382;45.192;9.790;2023-03-26T02:53:23;100725.78;;;11.32;100.00
51299;BME280;37382;45.192;9.790;2023-03-26T02:56:14;100718.28;;;10.99;100.00
51299;BME280;37382;45.192;9.790;2023-03-26T02:58:53;100715.72;;;11.32;100.00
51299;BME280;37382;45.192;9.790;2023-03-26T03:01:21;100723.53;;;11.00;100.00
51299;BME280;37382;45.192;9.790;2023-03-26T03:03:52;100735.53;;;10.78;100.00
51299;BME280;37382;45.192;9.790;2023-03-26T03:06:34;100746.00;;;10.81;100.00
51299;BME280;37382;45.192;9.790;2023-03-26T03:09:01;100738.25;;;10.78;100.00
51299;BME280;37382;45.192;9.790;2023-03-26T03:11:31;100739.38;;;10.90;100.00
51299;BME280;37382;45.192;9.790;2023-03-26T03:13:59;100738.81;;;11.01;100.00
51299;BME280;37382;45.192;9.790;2023-03-26T03:16:29;100734.34;;;10.87;100.00
51299;BME280;37382;45.192;9.790;2023-03-26T03:19:02;100734.22;;;11.02;100.00
51299;BME280;37382;45.192;9.790;2023-03-26T03:21:37;100738.38;;;10.63;100.00
51299;BME280;37382;45.192;9.790;2023-03-26T03:24:06;100746.31;;;10.93;100.00
51299;BME280;37382;45.192;9.790;2023-03-26T03:26:39;100744.28;;;11.01;100.00
51299;BME280;37382;45.192;9.790;2023-03-26T03:29:26;100743.03;;;10.69;100.00
51299;BME280;37382;45.192;9.790;2023-03-26T03:31:56;100734.13;;;10.10;100.00
51299;BME280;37382;45.192;9.790;2023-03-26T03:34:38;100738.22;;;10.00;100.00
51299;BME280;37382;45.192;9.790;2023-03-26T03:37:06;100735.88;;;9.75;100.00
51299;BME280;37382;45.192;9.790;2023-03-26T03:39:46;100735.56;;;9.48;100.00
51299;BME280;37382;45.192;9.790;2023-03-26T03:42:17;100736.28;;;9.20;100.00
51299;BME280;37382;45.192;9.790;2023-03-26T03:44:47;100728.22;;;9.27;100.00
51299;BME280;37382;45.192;9.790;2023-03-26T03:47:34;100727.94;;;9.37;100.00
51299;BME280;37382;45.192;9.790;2023-03-26T03:50:02;100725.25;;;9.07;100.00
51299;BME280;37382;45.192;9.790;2023-03-26T03:52:31;100725.63;;;9.19;100.00
51299;BME280;37382;45.192;9.790;2023-03-26T03:54:59;100721.50;;;9.08;100.00
51299;BME280;37382;45.192;9.790;2023-03-26T03:57:49;100714.34;;;9.37;100.00
51299;BME280;37382;45.192;9.790;2023-03-26T04:00:20;100717.50;;;9.77;100.00
51299;BME280;37382;45.192;9.790;2023-03-26T04:03:04;100705.47;;;10.08;100.00
51299;BME280;37382;45.192;9.790;2023-03-26T04:05:34;100708.94;;;9.58;100.00
51299;BME280;37382;45.192;9.790;2023-03-26T04:08:02;100699.00;;;9.87;100.00
51299;BME280;37382;45.192;9.790;2023-03-26T04:10:43;100714.78;;;9.77;100.00
51299;BME280;37382;45.192;9.790;2023-03-26T04:13:12;100703.72;;;9.57;100.00
51299;BME280;37382;45.192;9.790;2023-03-26T04:16:09;100705.47;;;9.86;100.00
51299;BME280;37382;45.192;9.790;2023-03-26T04:18:38;100704.81;;;9.41;100.00
51299;BME280;37382;45.192;9.790;2023-03-26T04:21:12;100714.53;;;9.35;100.00
51299;BME280;37382;45.192;9.790;2023-03-26T04:23:43;100716.91;;;9.23;100.00
51299;BME280;37382;45.192;9.790;2023-03-26T04:26:34;100717.47;;;9.19;100.00
51299;BME280;37382;45.192;9.790;2023-03-26T04:29:11;100718.88;;;9.00;100.00
51299;BME280;37382;45.192;9.790;2023-03-26T04:31:43;100726.81;;;9.01;100.00
51299;BME280;37382;45.192;9.790;2023-03-26T04:34:21;100711.06;;;9.41;100.00
51299;BME280;37382;45.192;9.790;2023-03-26T04:37:15;100725.00;;;9.53;100.00
51299;BME280;37382;45.192;9.790;2023-03-26T04:39:53;100721.38;;;9.31;100.00
51299;BME280;37382;45.192;9.790;2023-03-26T04:42:37;100737.22;;;9.13;100.00
51299;BME280;37382;45.192;9.790;2023-03-26T04:45:17;100730.84;;;8.90;100.00
51299;BME280;37382;45.192;9.790;2023-03-26T04:47:55;100734.69;;;8.05;100.00
51299;BME280;37382;45.192;9.790;2023-03-26T04:50:25;100737.44;;;8.20;100.00
51299;BME280;37382;45.192;9.790;2023-03-26T04:52:54;100737.78;;;8.40;100.00
51299;BME280;37382;45.192;9.790;2023-03-26T04:55:57;100728.13;;;8.90;100.00
51299;BME280;37382;45.192;9.790;2023-03-26T04:58:59;100725.22;;;9.22;100.00
51299;BME280;37382;45.192;9.790;2023-03-26T05:01:31;100726.06;;;8.63;100.00
51299;BME280;37382;45.192;9.790;2023-03-26T05:03:59;100731.66;;;8.46;100.00
51299;BME280;37382;45.192;9.790;2023-03-26T05:06:28;100727.28;;;8.60;100.00
51299;BME280;37382;45.192;9.790;2023-03-26T05:08:57;100725.06;;;8.79;100.00
51299;BME280;37382;45.192;9.790;2023-03-26T05:11:44;100728.13;;;8.61;100.00
51299;BME280;37382;45.192;9.790;2023-03-26T05:14:12;100728.72;;;8.33;100.00
51299;BME280;37382;45.192;9.790;2023-03-26T05:16:41;100734.56;;;8.22;100.00
51299;BME280;37382;45.192;9.790;2023-03-26T05:19:09;100737.34;;;8.13;100.00
51299;BME280;37382;45.192;9.790;2023-03-26T05:21:37;100728.78;;;8.25;100.00
51299;BME280;37382;45.192;9.790;2023-03-26T05:24:05;100734.41;;;8.38;100.00
51299;BME280;37382;45.192;9.790;2023-03-26T05:26:32;100732.53;;;8.47;100.00
51299;BME280;37382;45.192;9.790;2023-03-26T05:29:01;100724.13;;;8.33;100.00
51299;BME280;37382;45.192;9.790;2023-03-26T05:31:33;100727.28;;;8.45;100.00
51299;BME280;37382;45.192;9.790;2023-03-26T05:34:02;100716.56;;;8.82;100.00
51299;BME280;37382;45.192;9.790;2023-03-26T05:36:29;100710.16;;;9.19;100.00
51299;BME280;37382;45.192;9.790;2023-03-26T05:39:19;100712.50;;;9.22;100.00
51299;BME280;37382;45.192;9.790;2023-03-26T05:42:07;100713.72;;;9.20;100.00
51299;BME280;37382;45.192;9.790;2023-03-26T05:44:54;100714.94;;;9.69;100.00
51299;BME280;37382;45.192;9.790;2023-03-26T05:47:26;100721.91;;;9.78;100.00
51299;BME280;37382;45.192;9.790;2023-03-26T05:49:55;100718.34;;;9.77;100.00
51299;BME280;37382;45.192;9.790;2023-03-26T05:52:23;100718.84;;;9.66;100.00
51299;BME280;37382;45.192;9.790;2023-03-26T05:55:10;100712.91;;;10.21;100.00
51299;BME280;37382;45.192;9.790;2023-03-26T05:57:58;100705.25;;;10.31;100.00
51299;BME280;37382;45.192;9.790;2023-03-26T06:00:45;100699.25;;;10.36;100.00
51299;BME280;37382;45.192;9.790;2023-03-26T06:03:20;100695.38;;;10.23;100.00
51299;BME280;37382;45.192;9.790;2023-03-26T06:06:14;100695.09;;;10.40;100.00
51299;BME280;37382;45.192;9.790;2023-03-26T06:08:50;100690.06;;;10.15;100.00
51299;BME280;37382;45.192;9.790;2023-03-26T06:11:30;100685.72;;;10.21;100.00
51299;BME280;37382;45.192;9.790;2023-03-26T06:14:00;100693.50;;;10.52;100.00
51299;BME280;37382;45.192;9.790;2023-03-26T06:16:28;100698.50;;;10.48;100.00
51299;BME280;37382;45.192;9.790;2023-03-26T06:19:06;100700.72;;;10.66;100.00
51299;BME280;37382;45.192;9.790;2023-03-26T06:21:49;100693.38;;;10.95;100.00
51299;BME280;37382;45.192;9.790;2023-03-26T06:24:23;100696.88;;;10.89;100.00
51299;BME280;37382;45.192;9.790;2023-03-26T06:27:17;100705.34;;;11.08;100.00
51299;BME280;37382;45.192;9.790;2023-03-26T06:30:03;100709.97;;;11.07;100.00
51299;BME280;37382;45.192;9.790;2023-03-26T06:32:42;100708.09;;;11.14;100.00
51299;BME280;37382;45.192;9.790;2023-03-26T06:35:15;100713.88;;;11.46;100.00
51299;BME280;37382;45.192;9.790;2023-03-26T06:37:43;100705.91;;;11.31;100.00
51299;BME280;37382;45.192;9.790;2023-03-26T06:40:11;100709.06;;;11.42;100.00
51299;BME280;37382;45.192;9.790;2023-03-26T06:43:01;100705.53;;;11.54;100.00
51299;BME280;37382;45.192;9.790;2023-03-26T06:46:00;100705.97;;;11.65;100.00
51299;BME280;37382;45.192;9.790;2023-03-26T06:48:39;100707.25;;;11.69;100.00
51299;BME280;37382;45.192;9.790;2023-03-26T06:51:35;100701.78;;;11.69;100.00
51299;BME280;37382;45.192;9.790;2023-03-26T06:54:38;100699.47;;;11.66;100.00
51299;BME280;37382;45.192;9.790;2023-03-26T06:57:14;100695.19;;;12.12;100.00
51299;BME280;37382;45.192;9.790;2023-03-26T07:00:09;100679.66;;;12.12;100.00
51299;BME280;37382;45.192;9.790;2023-03-26T07:02:55;100673.38;;;12.38;100.00
51299;BME280;37382;45.192;9.790;2023-03-26T07:05:40;100654.69;;;12.35;100.00
51299;BME280;37382;45.192;9.790;2023-03-26T07:08:28;100659.13;;;12.23;100.00
51299;BME280;37382;45.192;9.790;2023-03-26T07:11:17;100660.56;;;12.39;100.00
51299;BME280;37382;45.192;9.790;2023-03-26T07:14:25;100658.81;;;12.78;100.00
51299;BME280;37382;45.192;9.790;2023-03-26T07:17:09;100661.59;;;13.16;100.00
51299;BME280;37382;45.192;9.790;2023-03-26T07:19:46;100653.38;;;13.23;100.00
51299;BME280;37382;45.192;9.790;2023-03-26T07:22:20;100659.44;;;13.39;100.00
51299;BME280;37382;45.192;9.790;2023-03-26T07:25:04;100666.97;;;13.37;100.00
51299;BME280;37382;45.192;9.790;2023-03-26T07:27:59;100656.66;;;13.45;100.00
51299;BME280;37382;45.192;9.790;2023-03-26T07:34:25;100641.31;;;13.76;100.00
51299;BME280;37382;45.192;9.790;2023-03-26T07:37:31;100649.13;;;13.73;100.00
51299;BME280;37382;45.192;9.790;2023-03-26T07:43:14;100634.16;;;14.07;100.00
51299;BME280;37382;45.192;9.790;2023-03-26T07:46:32;100639.38;;;13.83;100.00
51299;BME280;37382;45.192;9.790;2023-03-26T07:49:20;100633.78;;;14.22;100.00
51299;BME280;37382;45.192;9.790;2023-03-26T07:52:01;100627.47;;;14.21;100.00
51299;BME280;37382;45.192;9.790;2023-03-26T07:54:48;100621.66;;;14.11;100.00
51299;BME280;37382;45.192;9.790;2023-03-26T08:00:49;100628.75;;;14.19;100.00
51299;BME280;37382;45.192;9.790;2023-03-26T08:06:38;100604.66;;;13.84;100.00
51299;BME280;37382;45.192;9.790;2023-03-26T08:09:41;100579.00;;;13.60;100.00
51299;BME280;37382;45.192;9.790;2023-03-26T08:20:55;100569.16;;;13.77;100.00
51299;BME280;37382;45.192;9.790;2023-03-26T08:23:50;100555.34;;;14.16;100.00
51299;BME280;37382;45.192;9.790;2023-03-26T08:31:47;100582.88;;;14.39;100.00
51299;BME280;37382;45.192;9.790;2023-03-26T08:34:16;100582.88;;;14.39;100.00
51299;BME280;37382;45.192;9.790;2023-03-26T08:36:43;100583.50;;;14.41;100.00
51299;BME280;37382;45.192;9.790;2023-03-26T08:39:12;100580.53;;;14.43;100.00
51299;BME280;37382;45.192;9.790;2023-03-26T08:47:55;100557.50;;;14.51;100.00
51299;BME280;37382;45.192;9.790;2023-03-26T08:56:27;100574.44;;;14.97;100.00
51299;BME280;37382;45.192;9.790;2023-03-26T09:02:13;100555.38;;;15.62;100.00
51299;BME280;37382;45.192;9.790;2023-03-26T09:27:47;100511.31;;;16.52;100.00
51299;BME280;37382;45.192;9.790;2023-03-26T09:30:48;100509.13;;;16.66;100.00
51299;BME280;37382;45.192;9.790;2023-03-26T09:42:21;100488.31;;;16.70;100.00
51299;BME280;37382;45.192;9.790;2023-03-26T09:56:24;100476.22;;;17.12;100.00
51299;BME280;37382;45.192;9.790;2023-03-26T09:59:01;100468.31;;;17.32;100.00
51299;BME280;37382;45.192;9.790;2023-03-26T10:05:08;100444.25;;;16.77;100.00
51299;BME280;37382;45.192;9.790;2023-03-26T10:11:04;100424.22;;;16.93;100.00
51299;BME280;37382;45.192;9.790;2023-03-26T10:22:00;100396.59;;;16.54;100.00
51299;BME280;37382;45.192;9.790;2023-03-26T10:36:31;100400.84;;;17.24;100.00
51299;BME280;37382;45.192;9.790;2023-03-26T10:50:19;100399.09;;;17.91;100.00
51299;BME280;37382;45.192;9.790;2023-03-26T10:52:58;100395.00;;;18.16;100.00
51299;BME280;37382;45.192;9.790;2023-03-26T10:55:39;100388.41;;;17.78;100.00
51299;BME280;37382;45.192;9.790;2023-03-26T10:58:21;100393.91;;;17.95;100.00
51299;BME280;37382;45.192;9.790;2023-03-26T11:01:01;100372.41;;;17.92;100.00
51299;BME280;37382;45.192;9.790;2023-03-26T11:06:39;100335.84;;;18.46;100.00
51299;BME280;37382;45.192;9.790;2023-03-26T11:15:05;100339.09;;;18.16;100.00
51299;BME280;37382;45.192;9.790;2023-03-26T11:30:57;100323.34;;;19.83;100.00
51299;BME280;37382;45.192;9.790;2023-03-26T11:33:34;100334.84;;;19.22;100.00
51299;BME280;37382;45.192;9.790;2023-03-26T11:36:08;100339.75;;;19.15;100.00
51299;BME280;37382;45.192;9.790;2023-03-26T11:38:40;100339.19;;;19.55;100.00
51299;BME280;37382;45.192;9.790;2023-03-26T11:41:15;100333.41;;;19.62;100.00
51299;BME280;37382;45.192;9.790;2023-03-26T11:44:25;100317.34;;;20.02;100.00
51299;BME280;37382;45.192;9.790;2023-03-26T11:46:58;100310.22;;;20.26;100.00
51299;BME280;37382;45.192;9.790;2023-03-26T11:49:31;100288.69;;;20.44;100.00
51299;BME280;37382;45.192;9.790;2023-03-26T11:51:59;100282.59;;;20.26;99.78
51299;BME280;37382;45.192;9.790;2023-03-26T11:54:28;100288.69;;;19.55;93.24
51299;BME280;37382;45.192;9.790;2023-03-26T11:57:05;100285.66;;;19.56;92.88
51299;BME280;37382;45.192;9.790;2023-03-26T11:59:54;100284.97;;;18.86;93.77
51299;BME280;37382;45.192;9.790;2023-03-26T12:02:30;100282.41;;;19.65;93.00
51299;BME280;37382;45.192;9.790;2023-03-26T12:05:26;100268.22;;;20.19;93.28
51299;BME280;37382;45.192;9.790;2023-03-26T12:08:17;100255.00;;;20.47;91.33
51299;BME280;37382;45.192;9.790;2023-03-26T12:11:08;100260.53;;;20.57;90.68
51299;BME280;37382;45.192;9.790;2023-03-26T12:13:44;100249.75;;;20.56;89.82
51299;BME280;37382;45.192;9.790;2023-03-26T12:16:19;100247.75;;;20.05;90.24
51299;BME280;37382;45.192;9.790;2023-03-26T12:21:29;100241.31;;;19.10;92.61
51299;BME280;37382;45.192;9.790;2023-03-26T12:24:28;100238.09;;;19.29;93.21
51299;BME280;37382;45.192;9.790;2023-03-26T12:26:59;100228.47;;;19.36;94.38
51299;BME280;37382;45.192;9.790;2023-03-26T12:29:28;100214.19;;;19.45;93.87
51299;BME280;37382;45.192;9.790;2023-03-26T12:32:07;100218.06;;;18.58;94.82
51299;BME280;37382;45.192;9.790;2023-03-26T12:34:39;100217.25;;;18.63;95.15
51299;BME280;37382;45.192;9.790;2023-03-26T12:37:34;100214.25;;;18.64;96.80
51299;BME280;37382;45.192;9.790;2023-03-26T12:40:08;100198.44;;;18.49;100.00
51299;BME280;37382;45.192;9.790;2023-03-26T12:42:51;100205.91;;;18.22;100.00
51299;BME280;37382;45.192;9.790;2023-03-26T12:45:41;100195.84;;;17.78;100.00
51299;BME280;37382;45.192;9.790;2023-03-26T12:48:13;100199.75;;;17.60;100.00
51299;BME280;37382;45.192;9.790;2023-03-26T12:53:35;100189.69;;;17.21;100.00
51299;BME280;37382;45.192;9.790;2023-03-26T12:56:19;100170.81;;;17.79;100.00
51299;BME280;37382;45.192;9.790;2023-03-26T12:59:06;100156.50;;;17.28;100.00
51299;BME280;37382;45.192;9.790;2023-03-26T13:01:54;100153.47;;;17.52;100.00
51299;BME280;37382;45.192;9.790;2023-03-26T13:04:41;100135.03;;;18.07;100.00
51299;BME280;37382;45.192;9.790;2023-03-26T13:11:09;100134.78;;;17.81;100.00
51299;BME280;37382;45.192;9.790;2023-03-26T13:16:00;100131.41;;;17.19;100.00
51299;BME280;37382;45.192;9.790;2023-03-26T13:18:51;100116.72;;;17.09;100.00
51299;BME280;37382;45.192;9.790;2023-03-26T13:22:07;100118.81;;;17.01;100.00
51299;BME280;37382;45.192;9.790;2023-03-26T13:27:18;100099.28;;;16.98;100.00
51299;BME280;37382;45.192;9.790;2023-03-26T13:32:45;100094.66;;;17.03;100.00
51299;BME280;37382;45.192;9.790;2023-03-26T13:38:09;100106.19;;;16.61;100.00
51299;BME280;37382;45.192;9.790;2023-03-26T13:46:34;100094.38;;;16.44;100.00
51299;BME280;37382;45.192;9.790;2023-03-26T13:49:12;100094.03;;;16.79;100.00
51299;BME280;37382;45.192;9.790;2023-03-26T13:51:57;100098.72;;;16.57;100.00
51299;BME280;37382;45.192;9.790;2023-03-26T13:57:15;100084.13;;;16.56;100.00
51299;BME280;37382;45.192;9.790;2023-03-26T13:59:52;100079.50;;;16.40;100.00
51299;BME280;37382;45.192;9.790;2023-03-26T14:02:38;100072.44;;;16.44;100.00
51299;BME280;37382;45.192;9.790;2023-03-26T14:05:41;100065.91;;;16.28;100.00
51299;BME280;37382;45.192;9.790;2023-03-26T14:08:25;100061.81;;;16.30;100.00
51299;BME280;37382;45.192;9.790;2023-03-26T14:11:44;100066.28;;;16.36;100.00
51299;BME280;37382;45.192;9.790;2023-03-26T14:16:42;100062.59;;;15.92;100.00
51299;BME280;37382;45.192;9.790;2023-03-26T14:30:03;100049.38;;;14.45;100.00
51299;BME280;37382;45.192;9.790;2023-03-26T14:35:32;100062.03;;;14.10;100.00
51299;BME280;37382;45.192;9.790;2023-03-26T14:40:47;100054.28;;;13.83;100.00
51299;BME280;37382;45.192;9.790;2023-03-26T14:52:23;100093.84;;;12.71;100.00
51299;BME280;37382;45.192;9.790;2023-03-26T14:54:56;100111.56;;;12.43;100.00
51299;BME280;37382;45.192;9.790;2023-03-26T14:57:53;100108.22;;;12.23;100.00
51299;BME280;37382;45.192;9.790;2023-03-26T15:06:14;100103.00;;;11.96;100.00
51299;BME280;37382;45.192;9.790;2023-03-26T15:17:42;100083.84;;;11.78;100.00
51299;BME280;37382;45.192;9.790;2023-03-26T15:31:48;100101.88;;;11.47;100.00
51299;BME280;37382;45.192;9.790;2023-03-26T15:40:39;100081.72;;;11.48;100.00
51299;BME280;37382;45.192;9.790;2023-03-26T15:43:14;100077.22;;;11.67;100.00
51299;BME280;37382;45.192;9.790;2023-03-26T15:45:50;100058.94;;;11.99;100.00
51299;BME280;37382;45.192;9.790;2023-03-26T15:48:36;100056.56;;;12.46;100.00
51299;BME280;37382;45.192;9.790;2023-03-26T15:51:19;100066.69;;;12.21;100.00
51299;BME280;37382;45.192;9.790;2023-03-26T16:00:21;100005.88;;;12.88;100.00
51299;BME280;37382;45.192;9.790;2023-03-26T16:03:27;99931.25;;;12.63;100.00
51299;BME280;37382;45.192;9.790;2023-03-26T16:06:23;100009.25;;;12.71;100.00
51299;BME280;37382;45.192;9.790;2023-03-26T16:09:07;99987.56;;;12.76;100.00
51299;BME280;37382;45.192;9.790;2023-03-26T16:11:56;99944.03;;;12.81;100.00
51299;BME280;37382;45.192;9.790;2023-03-26T16:14:44;99907.97;;;12.79;100.00
51299;BME280;37382;45.192;9.790;2023-03-26T16:17:17;99929.91;;;12.05;100.00
51299;BME280;37382;45.192;9.790;2023-03-26T16:20:20;99956.72;;;11.65;100.00
51299;BME280;37382;45.192;9.790;2023-03-26T16:22:58;99959.44;;;11.65;100.00
51299;BME280;37382;45.192;9.790;2023-03-26T16:25:33;99926.59;;;12.03;100.00
51299;BME280;37382;45.192;9.790;2023-03-26T16:28:25;99876.84;;;12.38;100.00
51299;BME280;37382;45.192;9.790;2023-03-26T16:31:27;99867.38;;;12.83;100.00
51299;BME280;37382;45.192;9.790;2023-03-26T16:36:35;99958.84;;;11.81;100.00
51299;BME280;37382;45.192;9.790;2023-03-26T16:45:11;99959.47;;;11.39;100.00
51299;BME280;37382;45.192;9.790;2023-03-26T16:47:52;99971.03;;;11.35;100.00
51299;BME280;37382;45.192;9.790;2023-03-26T16:50:55;99968.88;;;11.44;100.00
51299;BME280;37382;45.192;9.790;2023-03-26T16:58:55;99976.84;;;11.38;100.00
51299;BME280;37382;45.192;9.790;2023-03-26T17:01:46;99959.88;;;11.62;100.00
51299;BME280;37382;45.192;9.790;2023-03-26T17:04:20;99969.78;;;11.31;100.00
51299;BME280;37382;45.192;9.790;2023-03-26T17:07:11;99972.03;;;11.41;100.00
51299;BME280;37382;45.192;9.790;2023-03-26T17:10:19;99942.19;;;13.36;100.00
51299;BME280;37382;45.192;9.790;2023-03-26T17:13:06;99929.16;;;14.67;100.00
51299;BME280;37382;45.192;9.790;2023-03-26T17:21:50;99943.97;;;12.39;100.00
51299;BME280;37382;45.192;9.790;2023-03-26T17:28:05;99918.38;;;12.40;100.00
51299;BME280;37382;45.192;9.790;2023-03-26T17:33:38;99892.53;;;11.69;100.00
51299;BME280;37382;45.192;9.790;2023-03-26T17:44:39;99912.56;;;11.12;100.00
51299;BME280;37382;45.192;9.790;2023-03-26T17:47:18;99906.56;;;11.29;100.00
51299;BME280;37382;45.192;9.790;2023-03-26T17:49:53;99925.66;;;11.22;100.00
51299;BME280;37382;45.192;9.790;2023-03-26T17:52:25;99928.84;;;10.87;100.00
51299;BME280;37382;45.192;9.790;2023-03-26T17:54:55;99927.56;;;10.96;100.00
51299;BME280;37382;45.192;9.790;2023-03-26T17:57:38;99927.72;;;11.01;100.00
51299;BME280;37382;45.192;9.790;2023-03-26T18:00:24;99934.63;;;10.72;100.00
51299;BME280;37382;45.192;9.790;2023-03-26T18:03:20;99923.31;;;11.00;100.00
51299;BME280;37382;45.192;9.790;2023-03-26T18:05:52;99922.91;;;11.29;100.00
51299;BME280;37382;45.192;9.790;2023-03-26T18:16:32;99926.78;;;11.14;100.00
51299;BME280;37382;45.192;9.790;2023-03-26T18:19:09;99932.88;;;10.84;100.00
51299;BME280;37382;45.192;9.790;2023-03-26T18:21:49;99930.75;;;10.86;100.00
51299;BME280;37382;45.192;9.790;2023-03-26T18:24:21;99933.09;;;11.08;100.00
51299;BME280;37382;45.192;9.790;2023-03-26T18:29:26;99938.38;;;11.28;100.00
51299;BME280;37382;45.192;9.790;2023-03-26T18:34:32;99937.13;;;11.31;100.00
51299;BME280;37382;45.192;9.790;2023-03-26T18:39:56;99937.78;;;11.26;100.00
51299;BME280;37382;45.192;9.790;2023-03-26T18:42:25;99933.84;;;11.47;100.00
51299;BME280;37382;45.192;9.790;2023-03-26T18:44:55;99940.13;;;11.23;100.00
51299;BME280;37382;45.192;9.790;2023-03-26T18:47:28;99953.25;;;10.68;100.00
51299;BME280;37382;45.192;9.790;2023-03-26T18:49:57;99962.13;;;10.50;100.00
51299;BME280;37382;45.192;9.790;2023-03-26T18:52:27;99969.06;;;10.40;100.00